sensor_id;sensor_type;location;lat;lon;timestamp;P1;durP1;ratioP1;P2;durP2;ratioP2
66298;SDS011;53098;47.658;8.578;2023-04-03T00:01:21;7.23;;;3.30;;
66298;SDS011;53098;47.658;8.578;2023-04-03T00:03:46;7.00;;;3.20;;
66298;SDS011;53098;47.658;8.578;2023-04-03T00:06:12;7.13;;;3.50;;
66298;SDS011;53098;47.658;8.578;2023-04-03T00:08:38;6.07;;;2.88;;
66298;SDS011;53098;47.658;8.578;2023-04-03T00:11:04;5.55;;;2.72;;
66298;SDS011;53098;47.658;8.578;2023-04-03T00:13:29;6.15;;;2.88;;
66298;SDS011;53098;47.658;8.578;2023-04-03T00:15:55;6.17;;;3.27;;
66298;SDS011;53098;47.658;8.578;2023-04-03T00:18:20;7.53;;;3.47;;
66298;SDS011;53098;47.658;8.578;2023-04-03T00:20:45;5.05;;;2.70;;
66298;SDS011;53098;47.658;8.578;2023-04-03T00:23:11;6.30;;;2.80;;
66298;SDS011;53098;47.658;8.578;2023-04-03T00:25:36;4.73;;;2.30;;
66298;SDS011;53098;47.658;8.578;2023-04-03T00:28:02;5.43;;;2.60;;
66298;SDS011;53098;47.658;8.578;2023-04-03T00:30:27;5.45;;;2.63;;
66298;SDS011;53098;47.658;8.578;2023-04-03T00:32:53;5.32;;;2.75;;
66298;SDS011;53098;47.658;8.578;2023-04-03T00:35:19;5.50;;;2.92;;
66298;SDS011;53098;47.658;8.578;2023-04-03T00:37:44;7.05;;;3.00;;
66298;SDS011;53098;47.658;8.578;2023-04-03T00:40:10;6.15;;;2.78;;
66298;SDS011;53098;47.658;8.578;2023-04-03T00:42:36;6.10;;;3.13;;
66298;SDS011;53098;47.658;8.578;2023-04-03T00:47:27;6.53;;;3.40;;
66298;SDS011;53098;47.658;8.578;2023-04-03T00:49:53;6.47;;;3.22;;
66298;SDS011;53098;47.658;8.578;2023-04-03T00:52:19;8.70;;;2.88;;
66298;SDS011;53098;47.658;8.578;2023-04-03T00:54:46;6.53;;;3.15;;
66298;SDS011;53098;47.658;8.578;2023-04-03T00:57:12;6.78;;;3.42;;
66298;SDS011;53098;47.658;8.578;2023-04-03T00:59:39;6.57;;;3.22;;
66298;SDS011;53098;47.658;8.578;2023-04-03T01:02:06;7.80;;;3.28;;
66298;SDS011;53098;47.658;8.578;2023-04-03T01:07:02;8.25;;;3.95;;
66298;SDS011;53098;47.658;8.578;2023-04-03T01:09:28;7.43;;;3.42;;
66298;SDS011;53098;47.658;8.578;2023-04-03T01:11:53;8.82;;;3.72;;
66298;SDS011;53098;47.658;8.578;2023-04-03T01:14:19;6.22;;;2.72;;
66298;SDS011;53098;47.658;8.578;2023-04-03T01:16:52;5.85;;;2.95;;
66298;SDS011;53098;47.658;8.578;2023-04-03T01:19:17;5.20;;;2.50;;
66298;SDS011;53098;47.658;8.578;2023-04-03T01:24:31;7.68;;;3.35;;
66298;SDS011;53098;47.658;8.578;2023-04-03T01:26:57;6.65;;;3.28;;
66298;SDS011;53098;47.658;8.578;2023-04-03T01:29:22;5.82;;;2.75;;
66298;SDS011;53098;47.658;8.578;2023-04-03T01:31:52;8.17;;;3.30;;
66298;SDS011;53098;47.658;8.578;2023-04-03T01:34:17;6.38;;;2.92;;
66298;SDS011;53098;47.658;8.578;2023-04-03T01:36:43;7.82;;;2.88;;
66298;SDS011;53098;47.658;8.578;2023-04-03T01:39:08;8.18;;;3.40;;
66298;SDS011;53098;47.658;8.578;2023-04-03T01:41:34;5.88;;;2.67;;
66298;SDS011;53098;47.658;8.578;2023-04-03T01:43:59;4.77;;;2.50;;
66298;SDS011;53098;47.658;8.578;2023-04-03T01:46:24;5.53;;;2.73;;
66298;SDS011;53098;47.658;8.578;2023-04-03T01:48:50;7.28;;;2.78;;
66298;SDS011;53098;47.658;8.578;2023-04-03T01:51:15;6.53;;;3.00;;
66298;SDS011;53098;47.658;8.578;2023-04-03T01:53:41;7.82;;;2.78;;
66298;SDS011;53098;47.658;8.578;2023-04-03T01:56:06;5.88;;;2.65;;
66298;SDS011;53098;47.658;8.578;2023-04-03T01:58:31;7.95;;;2.70;;
66298;SDS011;53098;47.658;8.578;2023-04-03T02:00:57;4.90;;;2.50;;
66298;SDS011;53098;47.658;8.578;2023-04-03T02:03:22;6.07;;;2.90;;
66298;SDS011;53098;47.658;8.578;2023-04-03T02:05:47;5.80;;;2.83;;
66298;SDS011;53098;47.658;8.578;2023-04-03T02:08:13;6.10;;;2.90;;
66298;SDS011;53098;47.658;8.578;2023-04-03T02:10:38;7.50;;;3.05;;
66298;SDS011;53098;47.658;8.578;2023-04-03T02:13:03;5.20;;;2.70;;
66298;SDS011;53098;47.658;8.578;2023-04-03T02:15:29;5.60;;;2.87;;
66298;SDS011;53098;47.658;8.578;2023-04-03T02:17:54;6.53;;;3.07;;
66298;SDS011;53098;47.658;8.578;2023-04-03T02:20:19;6.78;;;3.08;;
66298;SDS011;53098;47.658;8.578;2023-04-03T02:22:45;8.05;;;3.35;;
66298;SDS011;53098;47.658;8.578;2023-04-03T02:25:10;8.15;;;3.60;;
66298;SDS011;53098;47.658;8.578;2023-04-03T02:27:36;6.82;;;3.42;;
66298;SDS011;53098;47.658;8.578;2023-04-03T02:30:02;6.17;;;3.13;;
66298;SDS011;53098;47.658;8.578;2023-04-03T02:32:27;6.82;;;3.63;;
66298;SDS011;53098;47.658;8.578;2023-04-03T02:34:52;8.45;;;3.28;;
66298;SDS011;53098;47.658;8.578;2023-04-03T02:37:17;8.80;;;3.77;;
66298;SDS011;53098;47.658;8.578;2023-04-03T02:39:43;6.53;;;3.63;;
66298;SDS011;53098;47.658;8.578;2023-04-03T02:42:08;7.00;;;4.00;;
66298;SDS011;53098;47.658;8.578;2023-04-03T02:44:33;6.77;;;3.40;;
66298;SDS011;53098;47.658;8.578;2023-04-03T02:46:59;7.50;;;3.70;;
66298;SDS011;53098;47.658;8.578;2023-04-03T02:49:24;6.60;;;3.43;;
66298;SDS011;53098;47.658;8.578;2023-04-03T02:51:49;7.93;;;4.20;;
66298;SDS011;53098;47.658;8.578;2023-04-03T02:54:15;8.13;;;4.10;;
66298;SDS011;53098;47.658;8.578;2023-04-03T02:56:40;8.20;;;4.20;;
66298;SDS011;53098;47.658;8.578;2023-04-03T02:59:05;6.80;;;3.77;;
66298;SDS011;53098;47.658;8.578;2023-04-03T03:01:30;7.78;;;3.80;;
66298;SDS011;53098;47.658;8.578;2023-04-03T03:03:56;7.70;;;3.27;;
66298;SDS011;53098;47.658;8.578;2023-04-03T03:06:21;6.50;;;3.65;;
66298;SDS011;53098;47.658;8.578;2023-04-03T03:08:46;7.60;;;3.90;;
66298;SDS011;53098;47.658;8.578;2023-04-03T03:11:12;6.23;;;3.30;;
66298;SDS011;53098;47.658;8.578;2023-04-03T03:13:37;7.33;;;3.43;;
66298;SDS011;53098;47.658;8.578;2023-04-03T03:16:02;6.35;;;3.45;;
66298;SDS011;53098;47.658;8.578;2023-04-03T03:18:28;7.07;;;3.33;;
66298;SDS011;53098;47.658;8.578;2023-04-03T03:20:54;6.68;;;3.42;;
66298;SDS011;53098;47.658;8.578;2023-04-03T03:23:20;6.65;;;3.65;;
66298;SDS011;53098;47.658;8.578;2023-04-03T03:25:45;8.40;;;3.63;;
66298;SDS011;53098;47.658;8.578;2023-04-03T03:28:11;7.60;;;3.42;;
66298;SDS011;53098;47.658;8.578;2023-04-03T03:30:36;6.40;;;3.57;;
66298;SDS011;53098;47.658;8.578;2023-04-03T03:33:01;6.85;;;3.53;;
66298;SDS011;53098;47.658;8.578;2023-04-03T03:35:27;7.68;;;3.70;;
66298;SDS011;53098;47.658;8.578;2023-04-03T03:37:52;7.23;;;3.63;;
66298;SDS011;53098;47.658;8.578;2023-04-03T03:40:18;6.68;;;3.45;;
66298;SDS011;53098;47.658;8.578;2023-04-03T03:42:43;8.32;;;4.03;;
66298;SDS011;53098;47.658;8.578;2023-04-03T03:45:08;8.53;;;3.93;;
66298;SDS011;53098;47.658;8.578;2023-04-03T03:47:34;7.28;;;3.85;;
66298;SDS011;53098;47.658;8.578;2023-04-03T03:49:59;7.93;;;3.33;;
66298;SDS011;53098;47.658;8.578;2023-04-03T03:52:25;8.93;;;4.38;;
66298;SDS011;53098;47.658;8.578;2023-04-03T03:54:50;7.25;;;3.88;;
66298;SDS011;53098;47.658;8.578;2023-04-03T03:57:15;7.03;;;3.60;;
66298;SDS011;53098;47.658;8.578;2023-04-03T03:59:41;7.57;;;4.27;;
66298;SDS011;53098;47.658;8.578;2023-04-03T04:02:06;6.77;;;3.77;;
66298;SDS011;53098;47.658;8.578;2023-04-03T04:04:31;10.60;;;4.35;;
66298;SDS011;53098;47.658;8.578;2023-04-03T04:06:57;8.27;;;4.10;;
66298;SDS011;53098;47.658;8.578;2023-04-03T04:09:22;7.90;;;4.10;;
66298;SDS011;53098;47.658;8.578;2023-04-03T04:11:47;8.43;;;4.10;;
66298;SDS011;53098;47.658;8.578;2023-04-03T04:14:13;8.88;;;4.68;;
66298;SDS011;53098;47.658;8.578;2023-04-03T04:16:38;8.97;;;4.33;;
66298;SDS011;53098;47.658;8.578;2023-04-03T04:19:03;9.97;;;4.20;;
66298;SDS011;53098;47.658;8.578;2023-04-03T04:21:28;8.37;;;4.30;;
66298;SDS011;53098;47.658;8.578;2023-04-03T04:23:54;8.10;;;4.10;;
66298;SDS011;53098;47.658;8.578;2023-04-03T04:26:19;7.90;;;3.83;;
66298;SDS011;53098;47.658;8.578;2023-04-03T04:28:44;7.97;;;4.00;;
66298;SDS011;53098;47.658;8.578;2023-04-03T04:31:09;7.73;;;4.17;;
66298;SDS011;53098;47.658;8.578;2023-04-03T04:33:35;8.00;;;4.33;;
66298;SDS011;53098;47.658;8.578;2023-04-03T04:36:00;8.37;;;4.10;;
66298;SDS011;53098;47.658;8.578;2023-04-03T04:38:25;7.60;;;3.88;;
66298;SDS011;53098;47.658;8.578;2023-04-03T04:40:51;8.13;;;4.33;;
66298;SDS011;53098;47.658;8.578;2023-04-03T04:43:16;6.80;;;3.80;;
66298;SDS011;53098;47.658;8.578;2023-04-03T04:45:41;8.67;;;4.30;;
66298;SDS011;53098;47.658;8.578;2023-04-03T04:48:07;9.73;;;3.95;;
66298;SDS011;53098;47.658;8.578;2023-04-03T04:50:32;8.73;;;4.03;;
66298;SDS011;53098;47.658;8.578;2023-04-03T04:52:57;7.35;;;3.83;;
66298;SDS011;53098;47.658;8.578;2023-04-03T04:55:23;9.90;;;3.95;;
66298;SDS011;53098;47.658;8.578;2023-04-03T04:57:48;7.13;;;3.40;;
66298;SDS011;53098;47.658;8.578;2023-04-03T05:00:14;9.90;;;5.43;;
66298;SDS011;53098;47.658;8.578;2023-04-03T05:02:39;7.03;;;3.85;;
66298;SDS011;53098;47.658;8.578;2023-04-03T05:05:05;7.70;;;3.90;;
66298;SDS011;53098;47.658;8.578;2023-04-03T05:07:30;7.60;;;3.50;;
66298;SDS011;53098;47.658;8.578;2023-04-03T05:09:55;6.77;;;3.43;;
66298;SDS011;53098;47.658;8.578;2023-04-03T05:12:21;6.88;;;3.20;;
66298;SDS011;53098;47.658;8.578;2023-04-03T05:14:46;6.77;;;3.50;;
66298;SDS011;53098;47.658;8.578;2023-04-03T05:17:11;6.40;;;3.10;;
66298;SDS011;53098;47.658;8.578;2023-04-03T05:19:37;6.33;;;3.53;;
66298;SDS011;53098;47.658;8.578;2023-04-03T05:22:02;8.97;;;3.70;;
66298;SDS011;53098;47.658;8.578;2023-04-03T05:24:27;8.07;;;2.93;;
66298;SDS011;53098;47.658;8.578;2023-04-03T05:26:53;9.55;;;3.35;;
66298;SDS011;53098;47.658;8.578;2023-04-03T05:29:18;6.45;;;2.90;;
66298;SDS011;53098;47.658;8.578;2023-04-03T05:31:43;8.57;;;3.50;;
66298;SDS011;53098;47.658;8.578;2023-04-03T05:34:09;7.50;;;2.93;;
66298;SDS011;53098;47.658;8.578;2023-04-03T05:36:34;6.72;;;3.30;;
66298;SDS011;53098;47.658;8.578;2023-04-03T05:38:59;5.30;;;2.60;;
66298;SDS011;53098;47.658;8.578;2023-04-03T05:41:25;7.25;;;3.22;;
66298;SDS011;53098;47.658;8.578;2023-04-03T05:43:50;7.13;;;3.03;;
66298;SDS011;53098;47.658;8.578;2023-04-03T05:46:16;5.82;;;2.97;;
66298;SDS011;53098;47.658;8.578;2023-04-03T05:48:43;6.53;;;2.70;;
66298;SDS011;53098;47.658;8.578;2023-04-03T05:51:13;5.15;;;2.60;;
66298;SDS011;53098;47.658;8.578;2023-04-03T05:53:39;5.57;;;2.65;;
66298;SDS011;53098;47.658;8.578;2023-04-03T05:56:05;9.10;;;3.10;;
66298;SDS011;53098;47.658;8.578;2023-04-03T05:58:30;5.55;;;2.67;;
66298;SDS011;53098;47.658;8.578;2023-04-03T06:00:55;6.25;;;2.60;;
66298;SDS011;53098;47.658;8.578;2023-04-03T06:03:21;6.00;;;2.63;;
66298;SDS011;53098;47.658;8.578;2023-04-03T06:05:46;5.80;;;2.67;;
66298;SDS011;53098;47.658;8.578;2023-04-03T06:08:11;5.35;;;2.90;;
66298;SDS011;53098;47.658;8.578;2023-04-03T06:10:37;5.80;;;2.53;;
66298;SDS011;53098;47.658;8.578;2023-04-03T06:13:02;6.55;;;2.80;;
66298;SDS011;53098;47.658;8.578;2023-04-03T06:15:27;5.07;;;2.58;;
66298;SDS011;53098;47.658;8.578;2023-04-03T06:17:53;9.47;;;3.10;;
66298;SDS011;53098;47.658;8.578;2023-04-03T06:20:18;5.90;;;2.83;;
66298;SDS011;53098;47.658;8.578;2023-04-03T06:22:44;6.10;;;2.70;;
66298;SDS011;53098;47.658;8.578;2023-04-03T06:25:09;5.20;;;2.72;;
66298;SDS011;53098;47.658;8.578;2023-04-03T06:27:34;5.35;;;2.63;;
66298;SDS011;53098;47.658;8.578;2023-04-03T06:30:00;6.60;;;2.63;;
66298;SDS011;53098;47.658;8.578;2023-04-03T06:32:28;5.40;;;2.47;;
66298;SDS011;53098;47.658;8.578;2023-04-03T06:34:54;6.72;;;2.63;;
66298;SDS011;53098;47.658;8.578;2023-04-03T06:37:20;8.32;;;2.88;;
66298;SDS011;53098;47.658;8.578;2023-04-03T06:39:46;5.13;;;2.30;;
66298;SDS011;53098;47.658;8.578;2023-04-03T06:42:12;5.88;;;2.92;;
66298;SDS011;53098;47.658;8.578;2023-04-03T06:44:37;5.75;;;2.53;;
66298;SDS011;53098;47.658;8.578;2023-04-03T06:47:02;5.63;;;2.60;;
66298;SDS011;53098;47.658;8.578;2023-04-03T06:49:28;7.13;;;3.25;;
66298;SDS011;53098;47.658;8.578;2023-04-03T06:51:53;4.75;;;2.58;;
66298;SDS011;53098;47.658;8.578;2023-04-03T06:54:19;10.18;;;3.28;;
66298;SDS011;53098;47.658;8.578;2023-04-03T06:56:44;6.47;;;2.97;;
66298;SDS011;53098;47.658;8.578;2023-04-03T06:59:10;6.60;;;2.90;;
66298;SDS011;53098;47.658;8.578;2023-04-03T07:01:36;6.95;;;3.03;;
66298;SDS011;53098;47.658;8.578;2023-04-03T07:04:02;7.25;;;3.00;;
66298;SDS011;53098;47.658;8.578;2023-04-03T07:06:27;7.47;;;3.53;;
66298;SDS011;53098;47.658;8.578;2023-04-03T07:09:00;7.27;;;3.20;;
66298;SDS011;53098;47.658;8.578;2023-04-03T07:11:26;7.25;;;3.20;;
66298;SDS011;53098;47.658;8.578;2023-04-03T07:13:51;8.20;;;3.40;;
66298;SDS011;53098;47.658;8.578;2023-04-03T07:16:17;7.15;;;3.17;;
66298;SDS011;53098;47.658;8.578;2023-04-03T07:18:43;5.20;;;2.33;;
66298;SDS011;53098;47.658;8.578;2023-04-03T07:21:09;6.28;;;2.47;;
66298;SDS011;53098;47.658;8.578;2023-04-03T07:23:34;6.70;;;2.53;;
66298;SDS011;53098;47.658;8.578;2023-04-03T07:26:00;5.55;;;2.55;;
66298;SDS011;53098;47.658;8.578;2023-04-03T07:28:25;6.25;;;2.80;;
66298;SDS011;53098;47.658;8.578;2023-04-03T07:30:52;6.78;;;2.83;;
66298;SDS011;53098;47.658;8.578;2023-04-03T07:33:19;6.30;;;2.75;;
66298;SDS011;53098;47.658;8.578;2023-04-03T07:35:45;5.65;;;2.85;;
66298;SDS011;53098;47.658;8.578;2023-04-03T07:38:11;6.03;;;2.75;;
66298;SDS011;53098;47.658;8.578;2023-04-03T07:40:37;6.50;;;2.90;;
66298;SDS011;53098;47.658;8.578;2023-04-03T07:43:02;5.93;;;2.90;;
66298;SDS011;53098;47.658;8.578;2023-04-03T07:45:27;5.32;;;2.45;;
66298;SDS011;53098;47.658;8.578;2023-04-03T07:47:53;6.13;;;2.90;;
66298;SDS011;53098;47.658;8.578;2023-04-03T07:50:18;5.63;;;2.63;;
66298;SDS011;53098;47.658;8.578;2023-04-03T07:52:44;8.73;;;2.63;;
66298;SDS011;53098;47.658;8.578;2023-04-03T07:55:10;6.95;;;3.15;;
66298;SDS011;53098;47.658;8.578;2023-04-03T07:57:35;7.18;;;3.08;;
66298;SDS011;53098;47.658;8.578;2023-04-03T08:00:01;6.23;;;2.90;;
66298;SDS011;53098;47.658;8.578;2023-04-03T08:02:26;6.40;;;2.92;;
66298;SDS011;53098;47.658;8.578;2023-04-03T08:04:51;5.80;;;2.87;;
66298;SDS011;53098;47.658;8.578;2023-04-03T08:07:17;6.43;;;2.77;;
66298;SDS011;53098;47.658;8.578;2023-04-03T08:09:42;6.20;;;2.80;;
66298;SDS011;53098;47.658;8.578;2023-04-03T08:12:07;5.97;;;2.90;;
66298;SDS011;53098;47.658;8.578;2023-04-03T08:14:32;7.03;;;2.77;;
66298;SDS011;53098;47.658;8.578;2023-04-03T08:16:58;7.50;;;2.83;;
66298;SDS011;53098;47.658;8.578;2023-04-03T08:19:23;7.23;;;2.83;;
66298;SDS011;53098;47.658;8.578;2023-04-03T08:21:48;6.57;;;2.40;;
66298;SDS011;53098;47.658;8.578;2023-04-03T08:24:14;6.97;;;2.85;;
66298;SDS011;53098;47.658;8.578;2023-04-03T08:26:39;7.15;;;2.90;;
66298;SDS011;53098;47.658;8.578;2023-04-03T08:29:05;5.63;;;2.43;;
66298;SDS011;53098;47.658;8.578;2023-04-03T08:31:30;6.20;;;2.73;;
66298;SDS011;53098;47.658;8.578;2023-04-03T08:33:56;6.85;;;2.97;;
66298;SDS011;53098;47.658;8.578;2023-04-03T08:36:23;5.68;;;2.10;;
66298;SDS011;53098;47.658;8.578;2023-04-03T08:38:49;5.63;;;2.38;;
66298;SDS011;53098;47.658;8.578;2023-04-03T08:41:16;5.15;;;2.25;;
66298;SDS011;53098;47.658;8.578;2023-04-03T08:43:58;5.00;;;2.58;;
66298;SDS011;53098;47.658;8.578;2023-04-03T08:46:27;5.18;;;2.15;;
66298;SDS011;53098;47.658;8.578;2023-04-03T08:48:55;7.97;;;2.35;;
66298;SDS011;53098;47.658;8.578;2023-04-03T08:51:22;5.38;;;1.98;;
66298;SDS011;53098;47.658;8.578;2023-04-03T08:53:56;4.32;;;1.80;;
66298;SDS011;53098;47.658;8.578;2023-04-03T08:56:22;3.25;;;1.80;;
66298;SDS011;53098;47.658;8.578;2023-04-03T08:58:52;6.50;;;1.90;;
66298;SDS011;53098;47.658;8.578;2023-04-03T09:01:21;6.88;;;2.53;;
66298;SDS011;53098;47.658;8.578;2023-04-03T09:03:48;6.82;;;1.98;;
66298;SDS011;53098;47.658;8.578;2023-04-03T09:14:00;5.60;;;1.75;;
66298;SDS011;53098;47.658;8.578;2023-04-03T09:19:15;10.18;;;1.92;;
66298;SDS011;53098;47.658;8.578;2023-04-03T09:21:42;4.78;;;1.92;;
66298;SDS011;53098;47.658;8.578;2023-04-03T09:24:09;4.97;;;1.83;;
66298;SDS011;53098;47.658;8.578;2023-04-03T09:26:41;4.72;;;1.73;;
66298;SDS011;53098;47.658;8.578;2023-04-03T09:29:07;3.85;;;1.90;;
66298;SDS011;53098;47.658;8.578;2023-04-03T09:31:38;5.60;;;2.00;;
66298;SDS011;53098;47.658;8.578;2023-04-03T09:34:05;4.40;;;2.08;;
66298;SDS011;53098;47.658;8.578;2023-04-03T09:36:41;5.40;;;1.92;;
66298;SDS011;53098;47.658;8.578;2023-04-03T09:39:11;4.15;;;1.90;;
66298;SDS011;53098;47.658;8.578;2023-04-03T09:41:40;5.07;;;2.05;;
66298;SDS011;53098;47.658;8.578;2023-04-03T09:44:28;4.45;;;2.13;;
66298;SDS011;53098;47.658;8.578;2023-04-03T09:46:51;5.35;;;2.20;;
66298;SDS011;53098;47.658;8.578;2023-04-03T09:49:17;4.38;;;2.00;;
66298;SDS011;53098;47.658;8.578;2023-04-03T09:51:43;4.85;;;2.03;;
66298;SDS011;53098;47.658;8.578;2023-04-03T09:54:30;5.37;;;2.20;;
66298;SDS011;53098;47.658;8.578;2023-04-03T09:56:55;5.20;;;2.20;;
66298;SDS011;53098;47.658;8.578;2023-04-03T09:59:21;4.45;;;2.03;;
66298;SDS011;53098;47.658;8.578;2023-04-03T10:02:00;4.30;;;2.00;;
66298;SDS011;53098;47.658;8.578;2023-04-03T10:04:25;5.10;;;2.30;;
66298;SDS011;53098;47.658;8.578;2023-04-03T10:07:01;5.35;;;2.03;;
66298;SDS011;53098;47.658;8.578;2023-04-03T10:09:30;4.68;;;1.92;;
66298;SDS011;53098;47.658;8.578;2023-04-03T10:12:03;6.22;;;1.90;;
66298;SDS011;53098;47.658;8.578;2023-04-03T10:14:29;4.75;;;2.03;;
66298;SDS011;53098;47.658;8.578;2023-04-03T10:19:43;4.80;;;2.25;;
66298;SDS011;53098;47.658;8.578;2023-04-03T10:22:13;4.35;;;1.90;;
66298;SDS011;53098;47.658;8.578;2023-04-03T10:27:22;5.97;;;2.10;;
66298;SDS011;53098;47.658;8.578;2023-04-03T10:29:56;6.88;;;1.63;;
66298;SDS011;53098;47.658;8.578;2023-04-03T10:32:31;4.95;;;2.13;;
66298;SDS011;53098;47.658;8.578;2023-04-03T10:37:35;4.97;;;2.25;;
66298;SDS011;53098;47.658;8.578;2023-04-03T10:42:50;4.75;;;2.33;;
66298;SDS011;53098;47.658;8.578;2023-04-03T10:45:21;6.28;;;2.33;;
66298;SDS011;53098;47.658;8.578;2023-04-03T10:50:29;4.95;;;2.35;;
66298;SDS011;53098;47.658;8.578;2023-04-03T10:55:24;4.90;;;2.00;;
66298;SDS011;53098;47.658;8.578;2023-04-03T10:57:54;4.50;;;2.00;;
66298;SDS011;53098;47.658;8.578;2023-04-03T11:00:26;4.40;;;1.85;;
66298;SDS011;53098;47.658;8.578;2023-04-03T11:03:03;3.67;;;1.73;;
66298;SDS011;53098;47.658;8.578;2023-04-03T11:05:37;5.63;;;2.20;;
66298;SDS011;53098;47.658;8.578;2023-04-03T11:08:17;4.05;;;1.83;;
66298;SDS011;53098;47.658;8.578;2023-04-03T11:10:45;6.00;;;2.08;;
66298;SDS011;53098;47.658;8.578;2023-04-03T11:13:31;4.85;;;2.00;;
66298;SDS011;53098;47.658;8.578;2023-04-03T11:15:58;3.65;;;2.00;;
66298;SDS011;53098;47.658;8.578;2023-04-03T11:18:29;3.95;;;1.92;;
66298;SDS011;53098;47.658;8.578;2023-04-03T11:21:20;3.92;;;1.80;;
66298;SDS011;53098;47.658;8.578;2023-04-03T11:23:44;5.07;;;1.90;;
66298;SDS011;53098;47.658;8.578;2023-04-03T11:26:20;5.03;;;1.95;;
66298;SDS011;53098;47.658;8.578;2023-04-03T11:28:46;4.75;;;2.30;;
66298;SDS011;53098;47.658;8.578;2023-04-03T11:33:39;4.30;;;1.67;;
66298;SDS011;53098;47.658;8.578;2023-04-03T11:36:10;6.07;;;2.40;;
66298;SDS011;53098;47.658;8.578;2023-04-03T11:38:37;6.88;;;2.40;;
66298;SDS011;53098;47.658;8.578;2023-04-03T11:41:04;5.53;;;2.13;;
66298;SDS011;53098;47.658;8.578;2023-04-03T11:43:30;4.78;;;2.05;;
66298;SDS011;53098;47.658;8.578;2023-04-03T11:46:00;4.55;;;2.05;;
66298;SDS011;53098;47.658;8.578;2023-04-03T11:50:58;5.18;;;2.33;;
66298;SDS011;53098;47.658;8.578;2023-04-03T11:53:31;4.85;;;2.08;;
66298;SDS011;53098;47.658;8.578;2023-04-03T11:55:58;5.72;;;2.58;;
66298;SDS011;53098;47.658;8.578;2023-04-03T12:05:48;8.10;;;2.30;;
66298;SDS011;53098;47.658;8.578;2023-04-03T12:13:22;4.87;;;2.10;;
66298;SDS011;53098;47.658;8.578;2023-04-03T12:15:51;4.63;;;2.27;;
66298;SDS011;53098;47.658;8.578;2023-04-03T12:21:01;6.18;;;2.58;;
66298;SDS011;53098;47.658;8.578;2023-04-03T12:23:31;5.40;;;2.30;;
66298;SDS011;53098;47.658;8.578;2023-04-03T12:26:04;7.32;;;2.20;;
66298;SDS011;53098;47.658;8.578;2023-04-03T12:28:34;5.05;;;2.70;;
66298;SDS011;53098;47.658;8.578;2023-04-03T12:31:01;10.30;;;2.33;;
66298;SDS011;53098;47.658;8.578;2023-04-03T12:33:33;7.45;;;2.60;;
66298;SDS011;53098;47.658;8.578;2023-04-03T12:36:14;7.28;;;2.05;;
66298;SDS011;53098;47.658;8.578;2023-04-03T12:39:06;5.70;;;2.22;;
66298;SDS011;53098;47.658;8.578;2023-04-03T12:41:31;5.45;;;2.25;;
66298;SDS011;53098;47.658;8.578;2023-04-03T12:46:28;6.40;;;2.50;;
66298;SDS011;53098;47.658;8.578;2023-04-03T12:48:58;5.32;;;2.47;;
66298;SDS011;53098;47.658;8.578;2023-04-03T12:51:40;5.57;;;2.53;;
66298;SDS011;53098;47.658;8.578;2023-04-03T12:54:14;5.28;;;2.33;;
66298;SDS011;53098;47.658;8.578;2023-04-03T12:56:40;6.05;;;2.65;;
66298;SDS011;53098;47.658;8.578;2023-04-03T12:59:13;5.60;;;2.35;;
66298;SDS011;53098;47.658;8.578;2023-04-03T13:01:40;5.72;;;2.03;;
66298;SDS011;53098;47.658;8.578;2023-04-03T13:04:05;5.10;;;2.35;;
66298;SDS011;53098;47.658;8.578;2023-04-03T13:06:32;8.20;;;2.10;;
66298;SDS011;53098;47.658;8.578;2023-04-03T13:08:59;3.75;;;2.13;;
66298;SDS011;53098;47.658;8.578;2023-04-03T13:11:26;5.25;;;2.20;;
66298;SDS011;53098;47.658;8.578;2023-04-03T13:13:58;8.43;;;2.30;;
66298;SDS011;53098;47.658;8.578;2023-04-03T13:16:24;5.30;;;2.40;;
66298;SDS011;53098;47.658;8.578;2023-04-03T13:18:51;4.10;;;2.08;;
66298;SDS011;53098;47.658;8.578;2023-04-03T13:21:26;4.78;;;2.00;;
66298;SDS011;53098;47.658;8.578;2023-04-03T13:23:54;6.15;;;2.30;;
66298;SDS011;53098;47.658;8.578;2023-04-03T13:26:22;3.63;;;1.90;;
66298;SDS011;53098;47.658;8.578;2023-04-03T13:28:48;6.57;;;2.20;;
66298;SDS011;53098;47.658;8.578;2023-04-03T13:33:42;5.63;;;1.97;;
66298;SDS011;53098;47.658;8.578;2023-04-03T13:36:16;5.15;;;2.25;;
66298;SDS011;53098;47.658;8.578;2023-04-03T13:38:42;6.70;;;2.20;;
66298;SDS011;53098;47.658;8.578;2023-04-03T13:41:24;5.57;;;2.08;;
66298;SDS011;53098;47.658;8.578;2023-04-03T13:43:49;5.70;;;2.40;;
66298;SDS011;53098;47.658;8.578;2023-04-03T13:48:44;5.30;;;2.10;;
66298;SDS011;53098;47.658;8.578;2023-04-03T13:53:42;4.35;;;2.10;;
66298;SDS011;53098;47.658;8.578;2023-04-03T13:56:19;4.85;;;2.05;;
66298;SDS011;53098;47.658;8.578;2023-04-03T13:58:55;6.15;;;1.95;;
66298;SDS011;53098;47.658;8.578;2023-04-03T14:01:21;5.57;;;1.98;;
66298;SDS011;53098;47.658;8.578;2023-04-03T14:03:55;6.03;;;2.10;;
66298;SDS011;53098;47.658;8.578;2023-04-03T14:06:21;4.38;;;2.30;;
66298;SDS011;53098;47.658;8.578;2023-04-03T14:08:47;7.28;;;2.00;;
66298;SDS011;53098;47.658;8.578;2023-04-03T14:11:14;4.03;;;1.73;;
66298;SDS011;53098;47.658;8.578;2023-04-03T14:13:40;6.88;;;2.28;;
66298;SDS011;53098;47.658;8.578;2023-04-03T14:16:05;3.75;;;1.75;;
66298;SDS011;53098;47.658;8.578;2023-04-03T14:18:31;4.30;;;2.00;;
66298;SDS011;53098;47.658;8.578;2023-04-03T14:20:56;3.50;;;1.92;;
66298;SDS011;53098;47.658;8.578;2023-04-03T14:23:21;2.92;;;1.60;;
66298;SDS011;53098;47.658;8.578;2023-04-03T14:25:47;4.10;;;1.77;;
66298;SDS011;53098;47.658;8.578;2023-04-03T14:28:14;3.40;;;1.83;;
66298;SDS011;53098;47.658;8.578;2023-04-03T14:30:39;4.68;;;2.00;;
66298;SDS011;53098;47.658;8.578;2023-04-03T14:33:05;6.27;;;2.20;;
66298;SDS011;53098;47.658;8.578;2023-04-03T14:35:31;3.40;;;1.70;;
66298;SDS011;53098;47.658;8.578;2023-04-03T14:37:56;5.35;;;2.15;;
66298;SDS011;53098;47.658;8.578;2023-04-03T14:40:23;2.93;;;1.73;;
66298;SDS011;53098;47.658;8.578;2023-04-03T14:42:49;4.38;;;1.92;;
66298;SDS011;53098;47.658;8.578;2023-04-03T14:45:14;4.15;;;2.05;;
66298;SDS011;53098;47.658;8.578;2023-04-03T14:47:42;4.65;;;1.90;;
66298;SDS011;53098;47.658;8.578;2023-04-03T14:50:11;4.00;;;1.80;;
66298;SDS011;53098;47.658;8.578;2023-04-03T14:52:36;4.95;;;2.20;;
66298;SDS011;53098;47.658;8.578;2023-04-03T14:55:03;6.23;;;2.20;;
66298;SDS011;53098;47.658;8.578;2023-04-03T14:57:29;4.80;;;1.88;;
66298;SDS011;53098;47.658;8.578;2023-04-03T14:59:54;4.45;;;2.17;;
66298;SDS011;53098;47.658;8.578;2023-04-03T15:07:16;4.03;;;1.92;;
66298;SDS011;53098;47.658;8.578;2023-04-03T15:09:41;5.90;;;2.85;;
66298;SDS011;53098;47.658;8.578;2023-04-03T15:12:07;4.07;;;1.70;;
66298;SDS011;53098;47.658;8.578;2023-04-03T15:14:33;4.78;;;1.80;;
66298;SDS011;53098;47.658;8.578;2023-04-03T15:16:58;4.83;;;1.80;;
66298;SDS011;53098;47.658;8.578;2023-04-03T15:19:24;3.90;;;1.83;;
66298;SDS011;53098;47.658;8.578;2023-04-03T15:21:49;4.45;;;1.73;;
66298;SDS011;53098;47.658;8.578;2023-04-03T15:24:14;4.07;;;1.90;;
66298;SDS011;53098;47.658;8.578;2023-04-03T15:26:40;4.13;;;2.13;;
66298;SDS011;53098;47.658;8.578;2023-04-03T15:29:06;2.93;;;1.50;;
66298;SDS011;53098;47.658;8.578;2023-04-03T15:31:31;5.53;;;1.83;;
66298;SDS011;53098;47.658;8.578;2023-04-03T15:33:57;3.92;;;1.92;;
66298;SDS011;53098;47.658;8.578;2023-04-03T15:36:22;5.18;;;2.17;;
66298;SDS011;53098;47.658;8.578;2023-04-03T15:38:48;7.63;;;2.00;;
66298;SDS011;53098;47.658;8.578;2023-04-03T15:41:13;5.10;;;2.20;;
66298;SDS011;53098;47.658;8.578;2023-04-03T15:43:38;5.27;;;1.83;;
66298;SDS011;53098;47.658;8.578;2023-04-03T15:46:04;4.60;;;1.77;;
66298;SDS011;53098;47.658;8.578;2023-04-03T15:48:29;4.68;;;2.03;;
66298;SDS011;53098;47.658;8.578;2023-04-03T15:50:55;3.92;;;1.88;;
66298;SDS011;53098;47.658;8.578;2023-04-03T15:53:20;5.03;;;2.03;;
66298;SDS011;53098;47.658;8.578;2023-04-03T15:55:45;4.38;;;2.08;;